Terminal Aerodrome Forecast
Issued by NWS Bismarck, ND

Home | Current Version | Previous Version | Text Only | Print | Product List | Glossary On
Versions: 1 2 3 4 5 6 7 8 9 10 11 12 13 14 15
898
FTUS43 KBIS 080521
TAFISN
TAF
KISN 080521Z 0806/0906 32016KT P6SM FEW250
     FM081100 31009KT P6SM SCT200
     FM082000 31010KT P6SM BKN100
     FM090000 28006KT P6SM BKN090=

USA.gov is the U.S. government's official web portal to all federal, state and local government web resources and services.